sensor_id;sensor_type;location;lat;lon;timestamp;P1;durP1;ratioP1;P2;durP2;ratioP2
17763;SDS011;22245;52.832;13.816;2023-06-24T00:03:15;14.02;;;8.77;;
17763;SDS011;22245;52.832;13.816;2023-06-24T00:06:38;10.95;;;8.48;;
17763;SDS011;22245;52.832;13.816;2023-06-24T00:10:01;14.20;;;9.00;;
17763;SDS011;22245;52.832;13.816;2023-06-24T00:13:23;13.68;;;8.43;;
17763;SDS011;22245;52.832;13.816;2023-06-24T00:16:47;11.32;;;8.60;;
17763;SDS011;22245;52.832;13.816;2023-06-24T00:20:11;13.45;;;8.77;;
17763;SDS011;22245;52.832;13.816;2023-06-24T00:23:35;11.13;;;9.13;;
17763;SDS011;22245;52.832;13.816;2023-06-24T00:26:58;14.95;;;9.07;;
17763;SDS011;22245;52.832;13.816;2023-06-24T00:30:20;12.13;;;8.60;;
17763;SDS011;22245;52.832;13.816;2023-06-24T00:33:43;16.85;;;9.27;;
17763;SDS011;22245;52.832;13.816;2023-06-24T00:37:05;11.05;;;8.95;;
17763;SDS011;22245;52.832;13.816;2023-06-24T00:40:27;17.70;;;10.00;;
17763;SDS011;22245;52.832;13.816;2023-06-24T00:43:50;13.02;;;8.82;;
17763;SDS011;22245;52.832;13.816;2023-06-24T00:47:12;13.40;;;8.70;;
17763;SDS011;22245;52.832;13.816;2023-06-24T00:50:33;14.50;;;9.18;;
17763;SDS011;22245;52.832;13.816;2023-06-24T00:53:57;17.00;;;9.63;;
17763;SDS011;22245;52.832;13.816;2023-06-24T00:57:19;13.77;;;9.85;;
17763;SDS011;22245;52.832;13.816;2023-06-24T01:00:45;11.27;;;9.13;;
17763;SDS011;22245;52.832;13.816;2023-06-24T01:04:08;12.98;;;9.55;;
17763;SDS011;22245;52.832;13.816;2023-06-24T01:07:29;12.10;;;9.05;;
17763;SDS011;22245;52.832;13.816;2023-06-24T01:10:53;12.25;;;8.80;;
17763;SDS011;22245;52.832;13.816;2023-06-24T01:14:14;14.32;;;8.75;;
17763;SDS011;22245;52.832;13.816;2023-06-24T01:17:43;16.08;;;9.07;;
17763;SDS011;22245;52.832;13.816;2023-06-24T01:21:10;11.23;;;9.07;;
17763;SDS011;22245;52.832;13.816;2023-06-24T01:24:48;14.15;;;9.32;;
17763;SDS011;22245;52.832;13.816;2023-06-24T01:28:24;14.05;;;8.77;;
17763;SDS011;22245;52.832;13.816;2023-06-24T01:32:01;11.88;;;9.20;;
17763;SDS011;22245;52.832;13.816;2023-06-24T01:35:28;12.68;;;9.75;;
17763;SDS011;22245;52.832;13.816;2023-06-24T01:38:56;15.98;;;9.77;;
17763;SDS011;22245;52.832;13.816;2023-06-24T01:42:23;16.05;;;9.27;;
17763;SDS011;22245;52.832;13.816;2023-06-24T01:45:45;14.63;;;9.60;;
17763;SDS011;22245;52.832;13.816;2023-06-24T01:49:13;14.63;;;9.43;;
17763;SDS011;22245;52.832;13.816;2023-06-24T01:52:37;12.10;;;8.82;;
17763;SDS011;22245;52.832;13.816;2023-06-24T01:56:03;13.90;;;9.52;;
17763;SDS011;22245;52.832;13.816;2023-06-24T01:59:28;14.93;;;9.82;;
17763;SDS011;22245;52.832;13.816;2023-06-24T02:02:51;14.27;;;9.38;;
17763;SDS011;22245;52.832;13.816;2023-06-24T02:06:16;12.38;;;9.00;;
17763;SDS011;22245;52.832;13.816;2023-06-24T02:09:40;13.95;;;10.30;;
17763;SDS011;22245;52.832;13.816;2023-06-24T02:13:04;12.25;;;9.07;;
17763;SDS011;22245;52.832;13.816;2023-06-24T02:16:27;15.10;;;9.93;;
17763;SDS011;22245;52.832;13.816;2023-06-24T02:19:50;12.07;;;9.20;;
17763;SDS011;22245;52.832;13.816;2023-06-24T02:23:14;13.27;;;9.55;;
17763;SDS011;22245;52.832;13.816;2023-06-24T02:26:37;13.77;;;9.57;;
17763;SDS011;22245;52.832;13.816;2023-06-24T02:30:01;12.23;;;9.38;;
17763;SDS011;22245;52.832;13.816;2023-06-24T02:33:24;19.33;;;10.07;;
17763;SDS011;22245;52.832;13.816;2023-06-24T02:36:46;14.40;;;10.10;;
17763;SDS011;22245;52.832;13.816;2023-06-24T02:40:10;15.80;;;10.23;;
17763;SDS011;22245;52.832;13.816;2023-06-24T02:43:33;15.23;;;10.32;;
17763;SDS011;22245;52.832;13.816;2023-06-24T02:46:56;14.07;;;9.88;;
17763;SDS011;22245;52.832;13.816;2023-06-24T02:50:18;16.67;;;10.70;;
17763;SDS011;22245;52.832;13.816;2023-06-24T02:53:43;13.48;;;10.40;;
17763;SDS011;22245;52.832;13.816;2023-06-24T02:57:10;13.82;;;10.13;;
17763;SDS011;22245;52.832;13.816;2023-06-24T03:01:14;16.92;;;11.68;;
17763;SDS011;22245;52.832;13.816;2023-06-24T03:04:39;21.45;;;11.25;;
17763;SDS011;22245;52.832;13.816;2023-06-24T03:08:01;15.82;;;10.32;;
17763;SDS011;22245;52.832;13.816;2023-06-24T03:11:25;16.02;;;10.95;;
17763;SDS011;22245;52.832;13.816;2023-06-24T03:14:51;16.65;;;11.00;;
17763;SDS011;22245;52.832;13.816;2023-06-24T03:18:12;15.10;;;10.85;;
17763;SDS011;22245;52.832;13.816;2023-06-24T03:21:34;18.10;;;10.90;;
17763;SDS011;22245;52.832;13.816;2023-06-24T03:25:00;16.08;;;11.23;;
17763;SDS011;22245;52.832;13.816;2023-06-24T03:28:22;16.73;;;11.05;;
17763;SDS011;22245;52.832;13.816;2023-06-24T03:31:53;18.52;;;11.73;;
17763;SDS011;22245;52.832;13.816;2023-06-24T03:35:18;14.57;;;10.65;;
17763;SDS011;22245;52.832;13.816;2023-06-24T03:38:41;16.60;;;11.63;;
17763;SDS011;22245;52.832;13.816;2023-06-24T03:42:03;16.92;;;10.45;;
17763;SDS011;22245;52.832;13.816;2023-06-24T03:45:25;14.65;;;10.82;;
17763;SDS011;22245;52.832;13.816;2023-06-24T03:48:49;16.15;;;10.73;;
17763;SDS011;22245;52.832;13.816;2023-06-24T03:52:12;16.85;;;11.80;;
17763;SDS011;22245;52.832;13.816;2023-06-24T03:55:36;16.55;;;11.82;;
17763;SDS011;22245;52.832;13.816;2023-06-24T03:58:58;14.93;;;10.65;;
17763;SDS011;22245;52.832;13.816;2023-06-24T04:02:20;14.20;;;10.60;;
17763;SDS011;22245;52.832;13.816;2023-06-24T04:05:43;13.93;;;10.68;;
17763;SDS011;22245;52.832;13.816;2023-06-24T04:09:05;17.42;;;11.48;;
17763;SDS011;22245;52.832;13.816;2023-06-24T04:12:28;15.75;;;11.13;;
17763;SDS011;22245;52.832;13.816;2023-06-24T04:15:50;15.93;;;11.15;;
17763;SDS011;22245;52.832;13.816;2023-06-24T04:19:12;15.15;;;10.85;;
17763;SDS011;22245;52.832;13.816;2023-06-24T04:22:35;14.63;;;11.15;;
17763;SDS011;22245;52.832;13.816;2023-06-24T04:25:58;17.17;;;11.25;;
17763;SDS011;22245;52.832;13.816;2023-06-24T04:29:20;14.52;;;10.63;;
17763;SDS011;22245;52.832;13.816;2023-06-24T04:32:42;18.02;;;10.45;;
17763;SDS011;22245;52.832;13.816;2023-06-24T04:36:04;16.50;;;10.90;;
17763;SDS011;22245;52.832;13.816;2023-06-24T04:39:27;16.23;;;10.73;;
17763;SDS011;22245;52.832;13.816;2023-06-24T04:42:49;15.93;;;10.93;;
17763;SDS011;22245;52.832;13.816;2023-06-24T04:46:10;17.60;;;11.10;;
17763;SDS011;22245;52.832;13.816;2023-06-24T04:49:32;16.45;;;10.82;;
17763;SDS011;22245;52.832;13.816;2023-06-24T04:52:54;15.35;;;10.95;;
17763;SDS011;22245;52.832;13.816;2023-06-24T04:56:18;19.05;;;10.98;;
17763;SDS011;22245;52.832;13.816;2023-06-24T04:59:39;14.68;;;10.90;;
17763;SDS011;22245;52.832;13.816;2023-06-24T05:03:01;14.98;;;10.80;;
17763;SDS011;22245;52.832;13.816;2023-06-24T05:06:23;14.07;;;10.65;;
17763;SDS011;22245;52.832;13.816;2023-06-24T05:09:46;15.88;;;10.68;;
17763;SDS011;22245;52.832;13.816;2023-06-24T05:13:09;14.55;;;10.77;;
17763;SDS011;22245;52.832;13.816;2023-06-24T05:16:31;16.58;;;10.35;;
17763;SDS011;22245;52.832;13.816;2023-06-24T05:19:53;16.73;;;9.93;;
17763;SDS011;22245;52.832;13.816;2023-06-24T05:23:14;13.90;;;10.32;;
17763;SDS011;22245;52.832;13.816;2023-06-24T05:26:36;13.15;;;10.35;;
17763;SDS011;22245;52.832;13.816;2023-06-24T05:29:59;15.60;;;9.82;;
17763;SDS011;22245;52.832;13.816;2023-06-24T05:33:20;12.68;;;9.20;;
17763;SDS011;22245;52.832;13.816;2023-06-24T05:36:42;12.38;;;9.75;;
17763;SDS011;22245;52.832;13.816;2023-06-24T05:40:04;14.07;;;9.63;;
17763;SDS011;22245;52.832;13.816;2023-06-24T05:43:28;17.60;;;9.35;;
17763;SDS011;22245;52.832;13.816;2023-06-24T05:46:51;17.30;;;9.15;;
17763;SDS011;22245;52.832;13.816;2023-06-24T05:50:12;12.95;;;8.85;;
17763;SDS011;22245;52.832;13.816;2023-06-24T05:53:34;17.77;;;9.00;;
17763;SDS011;22245;52.832;13.816;2023-06-24T05:56:56;12.07;;;8.30;;
17763;SDS011;22245;52.832;13.816;2023-06-24T06:00:18;14.18;;;9.23;;
17763;SDS011;22245;52.832;13.816;2023-06-24T06:03:41;17.70;;;9.27;;
17763;SDS011;22245;52.832;13.816;2023-06-24T06:07:03;14.20;;;8.70;;
17763;SDS011;22245;52.832;13.816;2023-06-24T06:10:25;12.98;;;8.45;;
17763;SDS011;22245;52.832;13.816;2023-06-24T06:13:47;13.52;;;8.43;;
17763;SDS011;22245;52.832;13.816;2023-06-24T06:17:08;12.80;;;8.48;;
17763;SDS011;22245;52.832;13.816;2023-06-24T06:20:32;13.10;;;8.88;;
17763;SDS011;22245;52.832;13.816;2023-06-24T06:23:53;14.85;;;8.75;;
17763;SDS011;22245;52.832;13.816;2023-06-24T06:27:14;14.20;;;8.63;;
17763;SDS011;22245;52.832;13.816;2023-06-24T06:30:36;12.98;;;8.43;;
17763;SDS011;22245;52.832;13.816;2023-06-24T06:33:58;13.57;;;8.40;;
17763;SDS011;22245;52.832;13.816;2023-06-24T06:37:21;13.73;;;8.98;;
17763;SDS011;22245;52.832;13.816;2023-06-24T06:40:43;15.38;;;8.40;;
17763;SDS011;22245;52.832;13.816;2023-06-24T06:44:05;12.85;;;8.68;;
17763;SDS011;22245;52.832;13.816;2023-06-24T06:47:27;13.85;;;8.80;;
17763;SDS011;22245;52.832;13.816;2023-06-24T06:50:49;15.40;;;8.77;;
17763;SDS011;22245;52.832;13.816;2023-06-24T06:54:14;11.65;;;8.02;;
17763;SDS011;22245;52.832;13.816;2023-06-24T06:57:36;16.95;;;8.68;;
17763;SDS011;22245;52.832;13.816;2023-06-24T07:00:57;16.05;;;9.75;;
17763;SDS011;22245;52.832;13.816;2023-06-24T07:04:22;14.07;;;8.35;;
17763;SDS011;22245;52.832;13.816;2023-06-24T07:07:43;12.88;;;8.20;;
17763;SDS011;22245;52.832;13.816;2023-06-24T07:11:07;14.30;;;8.23;;
17763;SDS011;22245;52.832;13.816;2023-06-24T07:14:29;10.50;;;8.05;;
17763;SDS011;22245;52.832;13.816;2023-06-24T07:17:50;11.05;;;8.07;;
17763;SDS011;22245;52.832;13.816;2023-06-24T07:21:12;11.50;;;7.80;;
17763;SDS011;22245;52.832;13.816;2023-06-24T07:24:34;12.13;;;7.50;;
17763;SDS011;22245;52.832;13.816;2023-06-24T07:27:57;12.25;;;7.55;;
17763;SDS011;22245;52.832;13.816;2023-06-24T07:31:19;11.93;;;7.78;;
17763;SDS011;22245;52.832;13.816;2023-06-24T07:34:41;14.00;;;7.47;;
17763;SDS011;22245;52.832;13.816;2023-06-24T07:38:03;10.35;;;7.80;;
17763;SDS011;22245;52.832;13.816;2023-06-24T07:41:25;13.57;;;8.30;;
17763;SDS011;22245;52.832;13.816;2023-06-24T07:44:48;14.00;;;8.02;;
17763;SDS011;22245;52.832;13.816;2023-06-24T07:48:11;15.48;;;8.30;;
17763;SDS011;22245;52.832;13.816;2023-06-24T07:51:33;13.85;;;7.85;;
17763;SDS011;22245;52.832;13.816;2023-06-24T07:54:55;10.00;;;6.60;;
17763;SDS011;22245;52.832;13.816;2023-06-24T07:58:18;13.27;;;7.60;;
17763;SDS011;22245;52.832;13.816;2023-06-24T08:01:41;9.00;;;6.90;;
17763;SDS011;22245;52.832;13.816;2023-06-24T08:05:04;10.98;;;6.93;;
17763;SDS011;22245;52.832;13.816;2023-06-24T08:08:26;10.95;;;6.32;;
17763;SDS011;22245;52.832;13.816;2023-06-24T08:11:48;14.30;;;6.30;;
17763;SDS011;22245;52.832;13.816;2023-06-24T08:15:10;8.18;;;6.30;;
17763;SDS011;22245;52.832;13.816;2023-06-24T08:18:33;9.98;;;6.35;;
17763;SDS011;22245;52.832;13.816;2023-06-24T08:21:55;9.50;;;6.43;;
17763;SDS011;22245;52.832;13.816;2023-06-24T08:25:16;6.95;;;5.75;;
17763;SDS011;22245;52.832;13.816;2023-06-24T08:28:38;12.63;;;5.85;;
17763;SDS011;22245;52.832;13.816;2023-06-24T08:32:00;8.38;;;5.60;;
17763;SDS011;22245;52.832;13.816;2023-06-24T08:35:23;9.02;;;6.28;;
17763;SDS011;22245;52.832;13.816;2023-06-24T08:38:45;8.70;;;5.97;;
17763;SDS011;22245;52.832;13.816;2023-06-24T08:42:07;6.75;;;5.80;;
17763;SDS011;22245;52.832;13.816;2023-06-24T08:45:29;7.55;;;5.88;;
17763;SDS011;22245;52.832;13.816;2023-06-24T08:48:53;8.30;;;5.80;;
17763;SDS011;22245;52.832;13.816;2023-06-24T08:52:24;7.05;;;5.32;;
17763;SDS011;22245;52.832;13.816;2023-06-24T08:55:47;8.85;;;5.47;;
17763;SDS011;22245;52.832;13.816;2023-06-24T08:59:14;6.57;;;5.65;;
17763;SDS011;22245;52.832;13.816;2023-06-24T09:02:39;11.65;;;6.43;;
17763;SDS011;22245;52.832;13.816;2023-06-24T09:06:01;9.32;;;5.82;;
17763;SDS011;22245;52.832;13.816;2023-06-24T09:09:24;8.77;;;5.28;;
17763;SDS011;22245;52.832;13.816;2023-06-24T09:12:47;9.18;;;5.55;;
17763;SDS011;22245;52.832;13.816;2023-06-24T09:16:15;9.77;;;5.55;;
17763;SDS011;22245;52.832;13.816;2023-06-24T09:19:37;8.68;;;5.38;;
17763;SDS011;22245;52.832;13.816;2023-06-24T09:22:59;8.98;;;5.63;;
17763;SDS011;22245;52.832;13.816;2023-06-24T09:26:27;7.90;;;5.50;;
17763;SDS011;22245;52.832;13.816;2023-06-24T09:29:50;8.88;;;5.28;;
17763;SDS011;22245;52.832;13.816;2023-06-24T09:33:11;6.80;;;4.82;;
17763;SDS011;22245;52.832;13.816;2023-06-24T09:36:33;8.85;;;5.03;;
17763;SDS011;22245;52.832;13.816;2023-06-24T09:39:55;6.10;;;4.45;;
17763;SDS011;22245;52.832;13.816;2023-06-24T09:43:21;8.73;;;5.20;;
17763;SDS011;22245;52.832;13.816;2023-06-24T09:46:43;7.80;;;5.57;;
17763;SDS011;22245;52.832;13.816;2023-06-24T09:50:05;8.45;;;5.30;;
17763;SDS011;22245;52.832;13.816;2023-06-24T09:53:27;8.63;;;5.15;;
17763;SDS011;22245;52.832;13.816;2023-06-24T09:56:52;8.07;;;5.25;;
17763;SDS011;22245;52.832;13.816;2023-06-24T10:00:16;9.13;;;4.70;;
17763;SDS011;22245;52.832;13.816;2023-06-24T10:03:41;7.78;;;4.90;;
17763;SDS011;22245;52.832;13.816;2023-06-24T10:07:03;6.95;;;5.28;;
17763;SDS011;22245;52.832;13.816;2023-06-24T10:10:25;6.20;;;5.30;;
17763;SDS011;22245;52.832;13.816;2023-06-24T10:13:46;8.75;;;5.22;;
17763;SDS011;22245;52.832;13.816;2023-06-24T10:17:11;9.52;;;4.95;;
17763;SDS011;22245;52.832;13.816;2023-06-24T10:20:36;7.25;;;4.78;;
17763;SDS011;22245;52.832;13.816;2023-06-24T10:23:58;6.15;;;4.93;;
17763;SDS011;22245;52.832;13.816;2023-06-24T10:27:21;8.75;;;4.85;;
17763;SDS011;22245;52.832;13.816;2023-06-24T10:30:51;10.27;;;5.25;;
17763;SDS011;22245;52.832;13.816;2023-06-24T10:34:21;5.82;;;4.88;;
17763;SDS011;22245;52.832;13.816;2023-06-24T10:37:49;7.93;;;4.35;;
17763;SDS011;22245;52.832;13.816;2023-06-24T10:41:15;7.53;;;4.82;;
17763;SDS011;22245;52.832;13.816;2023-06-24T10:44:44;7.00;;;4.53;;
17763;SDS011;22245;52.832;13.816;2023-06-24T10:48:06;7.43;;;4.72;;
17763;SDS011;22245;52.832;13.816;2023-06-24T10:51:30;6.28;;;4.53;;
17763;SDS011;22245;52.832;13.816;2023-06-24T10:54:52;5.45;;;4.43;;
17763;SDS011;22245;52.832;13.816;2023-06-24T10:58:15;8.10;;;4.93;;
17763;SDS011;22245;52.832;13.816;2023-06-24T11:01:38;8.50;;;4.80;;
17763;SDS011;22245;52.832;13.816;2023-06-24T11:05:13;7.05;;;5.00;;
17763;SDS011;22245;52.832;13.816;2023-06-24T11:08:43;7.10;;;4.97;;
17763;SDS011;22245;52.832;13.816;2023-06-24T11:12:08;8.55;;;5.00;;
17763;SDS011;22245;52.832;13.816;2023-06-24T11:15:32;6.43;;;4.82;;
17763;SDS011;22245;52.832;13.816;2023-06-24T11:18:55;7.00;;;4.63;;
17763;SDS011;22245;52.832;13.816;2023-06-24T11:22:17;7.03;;;4.75;;
17763;SDS011;22245;52.832;13.816;2023-06-24T11:25:42;6.43;;;4.60;;
17763;SDS011;22245;52.832;13.816;2023-06-24T11:29:09;6.28;;;4.82;;
17763;SDS011;22245;52.832;13.816;2023-06-24T11:32:34;5.40;;;4.78;;
17763;SDS011;22245;52.832;13.816;2023-06-24T11:35:57;5.10;;;4.30;;
17763;SDS011;22245;52.832;13.816;2023-06-24T11:39:22;6.97;;;4.50;;
17763;SDS011;22245;52.832;13.816;2023-06-24T11:42:46;11.57;;;4.43;;
17763;SDS011;22245;52.832;13.816;2023-06-24T11:46:08;5.97;;;4.80;;
17763;SDS011;22245;52.832;13.816;2023-06-24T11:49:30;8.57;;;4.63;;
17763;SDS011;22245;52.832;13.816;2023-06-24T11:52:52;6.72;;;4.32;;
17763;SDS011;22245;52.832;13.816;2023-06-24T11:56:15;5.55;;;4.57;;
17763;SDS011;22245;52.832;13.816;2023-06-24T11:59:38;6.07;;;4.20;;
17763;SDS011;22245;52.832;13.816;2023-06-24T12:03:00;9.65;;;4.90;;
17763;SDS011;22245;52.832;13.816;2023-06-24T12:06:26;5.28;;;4.07;;
17763;SDS011;22245;52.832;13.816;2023-06-24T12:09:48;5.25;;;4.30;;
17763;SDS011;22245;52.832;13.816;2023-06-24T12:13:10;7.82;;;4.30;;
17763;SDS011;22245;52.832;13.816;2023-06-24T12:16:34;5.53;;;4.00;;
17763;SDS011;22245;52.832;13.816;2023-06-24T12:19:55;5.35;;;4.07;;
17763;SDS011;22245;52.832;13.816;2023-06-24T12:23:17;5.60;;;4.38;;
17763;SDS011;22245;52.832;13.816;2023-06-24T12:26:39;10.43;;;4.53;;
17763;SDS011;22245;52.832;13.816;2023-06-24T12:30:01;8.07;;;4.35;;
17763;SDS011;22245;52.832;13.816;2023-06-24T12:33:24;8.18;;;4.00;;
17763;SDS011;22245;52.832;13.816;2023-06-24T12:36:46;5.78;;;4.65;;
17763;SDS011;22245;52.832;13.816;2023-06-24T12:40:08;4.93;;;3.97;;
17763;SDS011;22245;52.832;13.816;2023-06-24T12:43:30;5.32;;;3.85;;
17763;SDS011;22245;52.832;13.816;2023-06-24T12:46:52;6.38;;;4.15;;
17763;SDS011;22245;52.832;13.816;2023-06-24T12:50:16;6.07;;;4.20;;
17763;SDS011;22245;52.832;13.816;2023-06-24T12:53:37;5.72;;;4.28;;
17763;SDS011;22245;52.832;13.816;2023-06-24T12:57:00;5.78;;;4.07;;
17763;SDS011;22245;52.832;13.816;2023-06-24T13:00:33;5.15;;;4.10;;
17763;SDS011;22245;52.832;13.816;2023-06-24T13:03:55;6.40;;;4.18;;
17763;SDS011;22245;52.832;13.816;2023-06-24T13:07:19;4.72;;;3.85;;
17763;SDS011;22245;52.832;13.816;2023-06-24T13:10:41;7.18;;;4.30;;
17763;SDS011;22245;52.832;13.816;2023-06-24T13:14:03;6.28;;;3.97;;
17763;SDS011;22245;52.832;13.816;2023-06-24T13:17:25;6.57;;;3.70;;
17763;SDS011;22245;52.832;13.816;2023-06-24T13:20:46;4.80;;;3.75;;
17763;SDS011;22245;52.832;13.816;2023-06-24T13:24:10;4.15;;;3.42;;
17763;SDS011;22245;52.832;13.816;2023-06-24T13:27:32;3.78;;;3.33;;
17763;SDS011;22245;52.832;13.816;2023-06-24T13:30:55;4.80;;;3.60;;
17763;SDS011;22245;52.832;13.816;2023-06-24T13:34:17;6.10;;;3.90;;
17763;SDS011;22245;52.832;13.816;2023-06-24T13:37:40;5.93;;;3.70;;
17763;SDS011;22245;52.832;13.816;2023-06-24T13:41:04;4.55;;;3.90;;
17763;SDS011;22245;52.832;13.816;2023-06-24T13:44:26;8.05;;;4.40;;
17763;SDS011;22245;52.832;13.816;2023-06-24T13:47:48;6.38;;;3.75;;
17763;SDS011;22245;52.832;13.816;2023-06-24T13:51:09;4.63;;;3.88;;
17763;SDS011;22245;52.832;13.816;2023-06-24T13:54:31;8.20;;;4.18;;
17763;SDS011;22245;52.832;13.816;2023-06-24T13:57:56;4.85;;;4.05;;
17763;SDS011;22245;52.832;13.816;2023-06-24T14:01:18;6.93;;;4.15;;
17763;SDS011;22245;52.832;13.816;2023-06-24T14:04:41;6.10;;;4.40;;
17763;SDS011;22245;52.832;13.816;2023-06-24T14:08:03;5.50;;;4.40;;
17763;SDS011;22245;52.832;13.816;2023-06-24T14:11:25;6.28;;;4.05;;
17763;SDS011;22245;52.832;13.816;2023-06-24T14:14:49;8.52;;;4.07;;
17763;SDS011;22245;52.832;13.816;2023-06-24T14:18:10;9.50;;;4.57;;
17763;SDS011;22245;52.832;13.816;2023-06-24T14:21:32;5.55;;;4.20;;
17763;SDS011;22245;52.832;13.816;2023-06-24T14:24:56;6.32;;;4.45;;
17763;SDS011;22245;52.832;13.816;2023-06-24T14:28:17;5.05;;;4.10;;
17763;SDS011;22245;52.832;13.816;2023-06-24T14:31:40;5.05;;;4.55;;
17763;SDS011;22245;52.832;13.816;2023-06-24T14:35:02;6.68;;;4.18;;
17763;SDS011;22245;52.832;13.816;2023-06-24T14:38:24;4.78;;;4.05;;
17763;SDS011;22245;52.832;13.816;2023-06-24T14:41:49;6.93;;;4.22;;
17763;SDS011;22245;52.832;13.816;2023-06-24T14:45:10;5.55;;;4.18;;
17763;SDS011;22245;52.832;13.816;2023-06-24T14:48:33;5.97;;;4.28;;
17763;SDS011;22245;52.832;13.816;2023-06-24T14:51:56;6.25;;;4.57;;
17763;SDS011;22245;52.832;13.816;2023-06-24T14:55:18;4.88;;;4.00;;
17763;SDS011;22245;52.832;13.816;2023-06-24T14:58:39;6.20;;;4.00;;
17763;SDS011;22245;52.832;13.816;2023-06-24T15:02:01;6.10;;;4.50;;
17763;SDS011;22245;52.832;13.816;2023-06-24T15:05:25;7.05;;;4.25;;
17763;SDS011;22245;52.832;13.816;2023-06-24T15:08:47;5.03;;;4.07;;
17763;SDS011;22245;52.832;13.816;2023-06-24T15:12:09;5.70;;;4.28;;
17763;SDS011;22245;52.832;13.816;2023-06-24T15:15:31;4.35;;;3.80;;
17763;SDS011;22245;52.832;13.816;2023-06-24T15:18:53;4.78;;;4.13;;
17763;SDS011;22245;52.832;13.816;2023-06-24T15:22:16;4.47;;;3.70;;
17763;SDS011;22245;52.832;13.816;2023-06-24T15:25:38;6.47;;;4.45;;
17763;SDS011;22245;52.832;13.816;2023-06-24T15:29:00;6.45;;;4.28;;
17763;SDS011;22245;52.832;13.816;2023-06-24T15:32:22;4.35;;;3.92;;
17763;SDS011;22245;52.832;13.816;2023-06-24T15:35:43;5.70;;;3.90;;
17763;SDS011;22245;52.832;13.816;2023-06-24T15:39:07;7.53;;;3.78;;
17763;SDS011;22245;52.832;13.816;2023-06-24T15:42:29;4.63;;;3.97;;
17763;SDS011;22245;52.832;13.816;2023-06-24T15:45:50;5.40;;;4.22;;
17763;SDS011;22245;52.832;13.816;2023-06-24T15:49:14;9.13;;;4.40;;
17763;SDS011;22245;52.832;13.816;2023-06-24T15:52:35;5.65;;;3.50;;
17763;SDS011;22245;52.832;13.816;2023-06-24T15:55:59;5.80;;;3.80;;
17763;SDS011;22245;52.832;13.816;2023-06-24T15:59:20;3.95;;;3.55;;
17763;SDS011;22245;52.832;13.816;2023-06-24T16:02:42;5.63;;;4.20;;
17763;SDS011;22245;52.832;13.816;2023-06-24T16:06:04;4.28;;;3.80;;
17763;SDS011;22245;52.832;13.816;2023-06-24T16:09:26;9.40;;;3.95;;
17763;SDS011;22245;52.832;13.816;2023-06-24T16:12:50;4.95;;;4.05;;
17763;SDS011;22245;52.832;13.816;2023-06-24T16:16:12;4.82;;;4.22;;
17763;SDS011;22245;52.832;13.816;2023-06-24T16:19:33;5.88;;;4.32;;
17763;SDS011;22245;52.832;13.816;2023-06-24T16:22:55;5.63;;;4.18;;
17763;SDS011;22245;52.832;13.816;2023-06-24T16:26:17;5.47;;;4.43;;
17763;SDS011;22245;52.832;13.816;2023-06-24T16:29:40;5.90;;;4.50;;
17763;SDS011;22245;52.832;13.816;2023-06-24T16:33:02;6.38;;;4.47;;
17763;SDS011;22245;52.832;13.816;2023-06-24T16:36:24;7.63;;;4.30;;
17763;SDS011;22245;52.832;13.816;2023-06-24T16:39:46;5.75;;;4.00;;
17763;SDS011;22245;52.832;13.816;2023-06-24T16:43:08;5.07;;;4.07;;
17763;SDS011;22245;52.832;13.816;2023-06-24T16:46:30;4.60;;;4.03;;
17763;SDS011;22245;52.832;13.816;2023-06-24T16:49:52;5.32;;;4.78;;
17763;SDS011;22245;52.832;13.816;2023-06-24T16:53:15;4.95;;;4.28;;
17763;SDS011;22245;52.832;13.816;2023-06-24T16:56:37;5.32;;;4.00;;
17763;SDS011;22245;52.832;13.816;2023-06-24T16:59:59;5.18;;;3.75;;
17763;SDS011;22245;52.832;13.816;2023-06-24T17:03:22;5.53;;;4.00;;
17763;SDS011;22245;52.832;13.816;2023-06-24T17:06:44;7.07;;;4.40;;
17763;SDS011;22245;52.832;13.816;2023-06-24T17:10:06;5.50;;;4.25;;
17763;SDS011;22245;52.832;13.816;2023-06-24T17:13:28;4.47;;;3.88;;
17763;SDS011;22245;52.832;13.816;2023-06-24T17:16:50;4.32;;;3.90;;
17763;SDS011;22245;52.832;13.816;2023-06-24T17:20:13;5.28;;;4.60;;
17763;SDS011;22245;52.832;13.816;2023-06-24T17:23:36;8.52;;;4.93;;
17763;SDS011;22245;52.832;13.816;2023-06-24T17:26:57;7.70;;;4.97;;
17763;SDS011;22245;52.832;13.816;2023-06-24T17:30:19;4.97;;;4.05;;
17763;SDS011;22245;52.832;13.816;2023-06-24T17:33:41;8.60;;;4.10;;
17763;SDS011;22245;52.832;13.816;2023-06-24T17:37:05;5.90;;;4.35;;
17763;SDS011;22245;52.832;13.816;2023-06-24T17:40:26;5.32;;;4.15;;
17763;SDS011;22245;52.832;13.816;2023-06-24T17:43:48;5.65;;;4.30;;
17763;SDS011;22245;52.832;13.816;2023-06-24T17:47:10;4.32;;;3.90;;
17763;SDS011;22245;52.832;13.816;2023-06-24T17:50:32;5.57;;;3.83;;
17763;SDS011;22245;52.832;13.816;2023-06-24T17:53:56;4.78;;;3.85;;
17763;SDS011;22245;52.832;13.816;2023-06-24T17:57:18;4.97;;;4.00;;
17763;SDS011;22245;52.832;13.816;2023-06-24T18:00:40;4.90;;;4.18;;
17763;SDS011;22245;52.832;13.816;2023-06-24T18:04:02;4.65;;;3.85;;
17763;SDS011;22245;52.832;13.816;2023-06-24T18:07:23;4.32;;;3.88;;
17763;SDS011;22245;52.832;13.816;2023-06-24T18:10:47;4.75;;;3.63;;
17763;SDS011;22245;52.832;13.816;2023-06-24T18:14:09;7.45;;;4.05;;
17763;SDS011;22245;52.832;13.816;2023-06-24T18:17:31;6.13;;;3.97;;
17763;SDS011;22245;52.832;13.816;2023-06-24T18:20:53;8.50;;;4.20;;
17763;SDS011;22245;52.832;13.816;2023-06-24T18:24:15;7.50;;;4.30;;
17763;SDS011;22245;52.832;13.816;2023-06-24T18:27:38;7.03;;;4.57;;
17763;SDS011;22245;52.832;13.816;2023-06-24T18:31:02;7.28;;;4.50;;
17763;SDS011;22245;52.832;13.816;2023-06-24T18:34:24;5.40;;;4.40;;
17763;SDS011;22245;52.832;13.816;2023-06-24T18:37:46;5.93;;;4.07;;
17763;SDS011;22245;52.832;13.816;2023-06-24T18:41:08;7.07;;;4.05;;
17763;SDS011;22245;52.832;13.816;2023-06-24T18:44:31;5.57;;;4.38;;
17763;SDS011;22245;52.832;13.816;2023-06-24T18:47:53;4.85;;;4.35;;
17763;SDS011;22245;52.832;13.816;2023-06-24T18:51:16;7.55;;;4.45;;
17763;SDS011;22245;52.832;13.816;2023-06-24T18:54:37;6.95;;;3.90;;
17763;SDS011;22245;52.832;13.816;2023-06-24T18:57:59;5.93;;;4.40;;
17763;SDS011;22245;52.832;13.816;2023-06-24T19:01:22;5.68;;;4.13;;
17763;SDS011;22245;52.832;13.816;2023-06-24T19:04:44;6.28;;;4.10;;
17763;SDS011;22245;52.832;13.816;2023-06-24T19:08:06;4.55;;;3.90;;
17763;SDS011;22245;52.832;13.816;2023-06-24T19:11:28;6.88;;;3.83;;
17763;SDS011;22245;52.832;13.816;2023-06-24T19:14:49;4.70;;;3.90;;
17763;SDS011;22245;52.832;13.816;2023-06-24T19:18:13;5.22;;;4.10;;
17763;SDS011;22245;52.832;13.816;2023-06-24T19:21:34;8.05;;;3.97;;
17763;SDS011;22245;52.832;13.816;2023-06-24T19:24:56;5.38;;;3.67;;
17763;SDS011;22245;52.832;13.816;2023-06-24T19:28:17;6.85;;;3.70;;
17763;SDS011;22245;52.832;13.816;2023-06-24T19:31:40;7.93;;;4.75;;
17763;SDS011;22245;52.832;13.816;2023-06-24T19:35:03;5.15;;;4.18;;
17763;SDS011;22245;52.832;13.816;2023-06-24T19:38:25;6.55;;;5.00;;
17763;SDS011;22245;52.832;13.816;2023-06-24T19:41:46;5.47;;;4.55;;
17763;SDS011;22245;52.832;13.816;2023-06-24T19:45:08;7.47;;;4.78;;
17763;SDS011;22245;52.832;13.816;2023-06-24T19:48:31;8.60;;;5.75;;
17763;SDS011;22245;52.832;13.816;2023-06-24T19:51:54;9.55;;;5.20;;
17763;SDS011;22245;52.832;13.816;2023-06-24T19:55:15;7.60;;;5.05;;